createdAt,value
2023-02-05T00:00:54.679Z,17.25
2023-02-05T00:02:17.325Z,15.73
2023-02-05T00:03:27.508Z,13.93
2023-02-05T00:04:40.090Z,13.10
2023-02-05T00:05:44.436Z,15.52
2023-02-05T00:06:46.055Z,18.63
2023-02-05T00:07:49.045Z,15.32
2023-02-05T00:08:50.665Z,19.27
2023-02-05T00:09:56.549Z,19.08
2023-02-05T00:11:05.516Z,17.13
2023-02-05T00:12:09.553Z,16.95
2023-02-05T00:13:11.149Z,15.18
2023-02-05T00:14:15.041Z,17.85
2023-02-05T00:15:16.583Z,14.70
2023-02-05T00:16:22.937Z,15.65
2023-02-05T00:17:24.621Z,17.13
2023-02-05T00:18:27.239Z,20.00
2023-02-05T00:19:28.882Z,19.95
2023-02-05T00:20:31.466Z,14.70
2023-02-05T00:21:35.459Z,17.58
2023-02-05T00:22:37.962Z,13.70
2023-02-05T00:23:40.025Z,14.20
2023-02-05T00:24:42.711Z,15.90
2023-02-05T00:25:44.504Z,13.73
2023-02-05T00:26:46.993Z,15.27
2023-02-05T00:27:48.651Z,14.20
2023-02-05T00:28:51.502Z,18.60
2023-02-05T00:29:53.114Z,17.65
2023-02-05T00:30:56.522Z,15.43
2023-02-05T00:31:58.086Z,17.13
2023-02-05T00:33:00.625Z,15.40
2023-02-05T00:34:02.474Z,16.73
2023-02-05T00:35:05.278Z,16.60
2023-02-05T00:36:08.205Z,15.48
2023-02-05T00:37:13.314Z,16.95
2023-02-05T00:38:15.022Z,15.32
2023-02-05T00:39:19.061Z,16.20
2023-02-05T00:40:20.876Z,17.83
2023-02-05T00:41:23.395Z,16.73
2023-02-05T00:42:25.018Z,18.63
2023-02-05T00:43:27.526Z,17.98
2023-02-05T00:44:29.332Z,14.45
2023-02-05T00:45:35.575Z,16.65
2023-02-05T00:46:37.830Z,14.88
2023-02-05T00:47:40.612Z,20.88
2023-02-05T00:48:43.281Z,20.70
2023-02-05T00:49:45.897Z,15.60
2023-02-05T00:50:48.947Z,20.40
2023-02-05T00:51:51.461Z,17.77
2023-02-05T00:52:55.140Z,17.25
2023-02-05T00:53:57.737Z,14.45
2023-02-05T00:54:59.582Z,15.32
2023-02-05T00:56:02.110Z,17.23
2023-02-05T00:57:04.245Z,12.90
2023-02-05T00:58:07.022Z,19.90
2023-02-05T00:59:08.657Z,15.63
2023-02-05T01:00:12.296Z,17.02
2023-02-05T01:01:14.330Z,13.98
2023-02-05T01:02:23.465Z,16.30
2023-02-05T01:03:25.089Z,14.30
2023-02-05T01:04:27.620Z,15.52
2023-02-05T01:05:30.689Z,17.60
2023-02-05T01:06:33.497Z,18.50
2023-02-05T01:07:35.128Z,16.98
2023-02-05T01:08:40.037Z,15.65
2023-02-05T01:09:41.547Z,17.88
2023-02-05T01:10:45.672Z,17.60
2023-02-05T01:11:47.208Z,16.05
2023-02-05T01:12:50.233Z,19.58
2023-02-05T01:13:51.793Z,17.10
2023-02-05T01:14:54.285Z,15.98
2023-02-05T01:15:56.136Z,16.73
2023-02-05T01:16:58.913Z,16.85
2023-02-05T01:18:01.147Z,18.02
2023-02-05T01:19:03.770Z,14.25
2023-02-05T01:20:07.651Z,16.85
2023-02-05T01:21:10.250Z,16.98
2023-02-05T01:22:11.907Z,15.85
2023-02-05T01:23:14.530Z,20.42
2023-02-05T01:24:17.405Z,20.50
2023-02-05T01:25:20.143Z,17.65
2023-02-05T01:26:21.791Z,19.70
2023-02-05T01:27:25.538Z,19.23
2023-02-05T01:28:27.483Z,19.33
2023-02-05T01:29:30.290Z,18.90
2023-02-05T01:30:34.210Z,14.70
2023-02-05T01:31:43.934Z,16.52
2023-02-05T01:32:45.621Z,16.00
2023-02-05T01:33:49.039Z,17.35
2023-02-05T01:34:50.809Z,16.55
2023-02-05T01:35:53.269Z,15.10
2023-02-05T01:36:54.878Z,15.88
2023-02-05T01:37:57.402Z,15.95
2023-02-05T01:38:58.966Z,18.75
2023-02-05T01:40:02.851Z,21.40
2023-02-05T01:41:04.571Z,15.82
2023-02-05T01:42:19.574Z,17.25
2023-02-05T01:43:21.260Z,16.17
2023-02-05T01:44:25.719Z,17.00
2023-02-05T01:45:50.774Z,15.88
2023-02-05T01:46:54.899Z,16.95
2023-02-05T01:47:58.215Z,19.52
2023-02-05T01:49:06.101Z,18.33
2023-02-05T01:50:10.132Z,16.42
2023-02-05T01:51:17.325Z,15.82
2023-02-05T01:52:22.328Z,16.27
2023-02-05T01:53:27.080Z,17.25
2023-02-05T01:54:32.422Z,17.40
2023-02-05T01:55:41.013Z,14.95
2023-02-05T01:56:47.974Z,14.40
2023-02-05T01:57:53.151Z,15.88
2023-02-05T01:58:58.857Z,20.13
2023-02-05T02:00:00.899Z,17.73
2023-02-05T02:01:03.559Z,17.90
2023-02-05T02:02:06.508Z,14.27
2023-02-05T02:03:11.465Z,14.32
2023-02-05T02:04:20.284Z,16.27
2023-02-05T02:05:22.159Z,14.23
2023-02-05T02:06:24.910Z,17.45
2023-02-05T02:07:27.247Z,16.25
2023-02-05T02:08:31.625Z,15.88
2023-02-05T02:09:34.144Z,12.25
2023-02-05T02:10:40.283Z,14.18
2023-02-05T02:11:43.658Z,14.82
2023-02-05T02:12:48.857Z,13.90
2023-02-05T02:13:55.193Z,12.75
2023-02-05T02:15:03.510Z,16.65
2023-02-05T02:16:07.635Z,13.23
2023-02-05T02:17:11.214Z,11.65
2023-02-05T02:18:28.066Z,14.02
2023-02-05T02:19:34.672Z,14.80
2023-02-05T02:20:41.059Z,14.98
2023-02-05T02:22:10.837Z,12.80
2023-02-05T02:23:22.590Z,13.70
2023-02-05T02:24:49.783Z,12.48
2023-02-05T02:26:16.612Z,15.68
2023-02-05T02:27:37.362Z,13.90
2023-02-05T02:28:45.474Z,10.75
2023-02-05T02:29:53.560Z,13.07
2023-02-05T02:31:02.716Z,13.93
2023-02-05T02:32:14.309Z,11.63
2023-02-05T02:33:28.454Z,13.88
2023-02-05T02:34:36.113Z,13.00
2023-02-05T02:35:47.878Z,9.65
2023-02-05T02:37:00.092Z,13.60
2023-02-05T02:38:09.587Z,12.02
2023-02-05T02:39:20.256Z,10.07
2023-02-05T02:40:27.714Z,8.93
2023-02-05T02:41:37.613Z,10.18
2023-02-05T02:42:45.965Z,9.45
2023-02-05T02:43:53.623Z,10.02
2023-02-05T02:44:58.964Z,12.05
2023-02-05T02:46:05.126Z,11.52
2023-02-05T02:47:13.959Z,11.77
2023-02-05T02:48:19.252Z,13.35
2023-02-05T02:49:26.694Z,13.13
2023-02-05T02:50:35.989Z,12.10
2023-02-05T02:51:42.197Z,12.40
2023-02-05T02:52:48.365Z,13.65
2023-02-05T02:53:55.779Z,12.55
2023-02-05T02:55:05.705Z,11.65
2023-02-05T02:56:11.214Z,10.60
2023-02-05T02:57:17.403Z,12.30
2023-02-05T02:58:25.387Z,13.93
2023-02-05T02:59:31.366Z,11.80
2023-02-05T03:00:34.215Z,9.75
2023-02-05T03:01:42.549Z,14.18
2023-02-05T03:02:48.013Z,13.25
2023-02-05T03:03:54.686Z,14.70
2023-02-05T03:05:01.626Z,11.50
2023-02-05T03:06:08.344Z,11.73
2023-02-05T03:07:12.428Z,10.38
2023-02-05T03:08:20.278Z,13.02
2023-02-05T03:09:30.228Z,13.05
2023-02-05T03:10:41.049Z,10.63
2023-02-05T03:12:45.183Z,13.00
2023-02-05T03:13:48.917Z,10.95
2023-02-05T03:14:52.839Z,9.35
2023-02-05T03:15:54.528Z,12.25
2023-02-05T03:16:57.469Z,10.70
2023-02-05T03:17:59.487Z,13.63
2023-02-05T03:19:05.486Z,11.35
2023-02-05T03:20:11.722Z,14.82
2023-02-05T03:21:18.061Z,9.68
2023-02-05T03:22:19.584Z,11.68
2023-02-05T03:23:22.876Z,9.80
2023-02-05T03:24:25.104Z,11.75
2023-02-05T03:25:30.105Z,9.63
2023-02-05T03:26:35.089Z,13.98
2023-02-05T03:27:38.482Z,14.20
2023-02-05T03:28:40.428Z,11.07
2023-02-05T03:29:45.770Z,13.60
2023-02-05T03:30:58.175Z,11.35
2023-02-05T03:32:12.111Z,13.40
2023-02-05T03:33:31.784Z,13.75
2023-02-05T03:34:46.704Z,12.05
2023-02-05T03:35:58.556Z,11.43
2023-02-05T03:37:11.427Z,15.23
2023-02-05T03:38:28.019Z,13.45
2023-02-05T03:39:40.903Z,13.32
2023-02-05T03:40:48.412Z,13.23
2023-02-05T03:41:58.727Z,14.32
2023-02-05T03:43:10.003Z,12.82
2023-02-05T03:44:21.921Z,12.90
2023-02-05T03:45:33.800Z,13.30
2023-02-05T03:46:47.451Z,14.80
2023-02-05T03:48:04.318Z,13.73
2023-02-05T03:49:16.146Z,26.15
2023-02-05T03:50:29.609Z,14.35
2023-02-05T03:51:39.711Z,13.35
2023-02-05T03:52:45.763Z,11.60
2023-02-05T03:54:01.246Z,16.35
2023-02-05T03:55:08.624Z,14.63
2023-02-05T03:56:18.323Z,12.18
2023-02-05T03:57:24.786Z,15.60
2023-02-05T03:58:30.495Z,14.43
2023-02-05T03:59:35.809Z,13.50
2023-02-05T04:00:41.036Z,13.90
2023-02-05T04:01:43.139Z,14.20
2023-02-05T04:02:49.097Z,14.52
2023-02-05T04:03:50.937Z,12.52
2023-02-05T04:04:53.618Z,12.05
2023-02-05T04:05:56.285Z,13.93
2023-02-05T04:06:58.892Z,11.60
2023-02-05T04:08:00.476Z,12.30
2023-02-05T04:09:03.172Z,9.10
2023-02-05T04:10:05.027Z,12.13
2023-02-05T04:11:10.153Z,12.57
2023-02-05T04:12:11.664Z,13.88
2023-02-05T04:13:14.196Z,14.38
2023-02-05T04:14:15.753Z,9.57
2023-02-05T04:15:18.550Z,9.90
2023-02-05T04:16:21.769Z,15.05
2023-02-05T04:17:24.316Z,8.93
2023-02-05T04:18:26.291Z,11.25
2023-02-05T04:19:29.144Z,8.95
2023-02-05T04:20:30.622Z,11.07
2023-02-05T04:21:34.781Z,13.10
2023-02-05T04:22:36.370Z,13.43
2023-02-05T04:23:38.989Z,12.15
2023-02-05T04:24:40.565Z,11.23
2023-02-05T04:25:43.605Z,10.60
2023-02-05T04:26:45.452Z,10.73
2023-02-05T04:27:48.222Z,12.90
2023-02-05T04:28:49.882Z,8.98
2023-02-05T04:29:52.403Z,11.77
2023-02-05T04:30:53.940Z,12.15
2023-02-05T04:31:58.220Z,10.18
2023-02-05T04:33:00.133Z,11.30
2023-02-05T04:34:02.724Z,9.23
2023-02-05T04:35:04.985Z,11.63
2023-02-05T04:36:08.622Z,12.15
2023-02-05T04:37:11.150Z,9.45
2023-02-05T04:38:16.172Z,15.98
2023-02-05T04:39:18.692Z,14.85
2023-02-05T04:40:20.334Z,15.18
2023-02-05T04:41:23.053Z,9.45
2023-02-05T04:42:24.609Z,14.18
2023-02-05T04:43:27.294Z,12.18
2023-02-05T04:44:29.072Z,9.30
2023-02-05T04:45:33.608Z,9.15
2023-02-05T04:46:35.295Z,9.57
2023-02-05T04:47:39.475Z,10.32
2023-02-05T04:48:42.685Z,11.63
2023-02-05T04:49:45.203Z,13.32
2023-02-05T04:50:47.246Z,11.27
2023-02-05T04:51:50.028Z,10.32
2023-02-05T04:52:54.567Z,13.32
2023-02-05T04:53:57.351Z,11.25
2023-02-05T04:54:58.967Z,14.18
2023-02-05T04:56:12.273Z,10.90
2023-02-05T04:57:19.406Z,9.90
2023-02-05T04:58:22.335Z,11.95
2023-02-05T04:59:24.123Z,9.32
2023-02-05T05:00:27.562Z,13.63
2023-02-05T05:01:29.090Z,9.00
2023-02-05T05:02:33.780Z,8.57
2023-02-05T05:03:39.381Z,10.70
2023-02-05T05:04:43.505Z,11.00
2023-02-05T05:05:47.143Z,12.32
2023-02-05T05:06:51.703Z,12.40
2023-02-05T05:07:53.571Z,10.90
2023-02-05T05:08:58.219Z,9.25
2023-02-05T05:09:59.755Z,10.20
2023-02-05T05:11:07.715Z,9.65
2023-02-05T05:12:09.205Z,13.73
2023-02-05T05:13:11.783Z,12.57
2023-02-05T05:14:14.996Z,8.90
2023-02-05T05:15:19.635Z,8.48
2023-02-05T05:16:21.232Z,12.00
2023-02-05T05:17:23.729Z,8.07
2023-02-05T05:18:25.239Z,8.88
2023-02-05T05:19:30.664Z,7.32
2023-02-05T05:20:32.333Z,9.52
2023-02-05T05:21:34.837Z,12.68
2023-02-05T05:22:38.222Z,9.95
2023-02-05T05:23:41.012Z,9.18
2023-02-05T05:24:42.766Z,8.70
2023-02-05T05:25:46.494Z,11.77
2023-02-05T05:26:48.028Z,8.48
2023-02-05T05:27:54.935Z,9.73
2023-02-05T05:29:02.871Z,13.27
2023-02-05T05:30:06.097Z,9.55
2023-02-05T05:31:09.913Z,10.98
2023-02-05T05:32:12.441Z,12.32
2023-02-05T05:33:16.144Z,9.73
2023-02-05T05:34:18.866Z,9.27
2023-02-05T05:35:22.054Z,9.20
2023-02-05T05:36:24.588Z,10.52
2023-02-05T05:37:26.258Z,9.30
2023-02-05T05:38:32.608Z,8.73
2023-02-05T05:39:53.100Z,12.13
2023-02-05T05:41:13.532Z,8.65
2023-02-05T05:42:40.009Z,8.32
2023-02-05T05:43:48.541Z,10.10
2023-02-05T05:44:52.101Z,12.95
2023-02-05T05:45:58.065Z,10.52
2023-02-05T05:46:59.604Z,12.65
2023-02-05T05:48:03.322Z,11.80
2023-02-05T05:49:04.875Z,10.43
2023-02-05T05:50:08.148Z,11.10
2023-02-05T05:51:11.014Z,10.00
2023-02-05T05:52:13.561Z,11.43
2023-02-05T05:53:15.614Z,11.15
2023-02-05T05:54:22.682Z,11.80
2023-02-05T05:55:24.190Z,9.57
2023-02-05T05:56:28.223Z,8.80
2023-02-05T05:57:31.898Z,11.60
2023-02-05T05:58:34.679Z,11.13
2023-02-05T05:59:37.002Z,9.00
2023-02-05T06:00:41.555Z,13.38
2023-02-05T06:01:48.310Z,14.38
2023-02-05T06:02:51.995Z,13.15
2023-02-05T06:03:53.635Z,9.45
2023-02-05T06:04:56.469Z,9.48
2023-02-05T06:06:00.468Z,16.42
2023-02-05T06:07:06.656Z,15.98
2023-02-05T06:08:08.168Z,10.30
2023-02-05T06:09:10.886Z,10.68
2023-02-05T06:10:12.753Z,9.35
2023-02-05T06:11:15.477Z,12.38
2023-02-05T06:12:17.234Z,12.13
2023-02-05T06:13:19.762Z,13.07
2023-02-05T06:14:21.386Z,12.75
2023-02-05T06:15:24.252Z,9.63
2023-02-05T06:16:25.928Z,9.77
2023-02-05T06:17:29.185Z,15.18
2023-02-05T06:18:41.356Z,12.63
2023-02-05T06:19:45.474Z,8.90
2023-02-05T06:20:47.279Z,12.38
2023-02-05T06:21:49.956Z,11.25
2023-02-05T06:22:52.873Z,13.25
2023-02-05T06:23:55.512Z,9.43
2023-02-05T06:24:58.103Z,11.07
2023-02-05T06:26:00.582Z,8.40
2023-02-05T06:27:02.160Z,10.20
2023-02-05T06:28:04.797Z,9.40
2023-02-05T06:29:08.969Z,11.13
2023-02-05T06:30:18.634Z,10.05
2023-02-05T06:31:20.288Z,8.63
2023-02-05T06:32:26.811Z,12.32
2023-02-05T06:33:28.500Z,13.68
2023-02-05T06:34:31.213Z,8.20
2023-02-05T06:35:33.504Z,9.80
2023-02-05T06:36:36.321Z,10.02
2023-02-05T06:37:47.158Z,10.02
2023-02-05T06:38:53.803Z,7.82
2023-02-05T06:39:55.608Z,11.18
2023-02-05T06:40:58.137Z,8.45
2023-02-05T06:41:59.692Z,9.32
2023-02-05T06:43:03.604Z,12.82
2023-02-05T06:44:08.191Z,12.68
2023-02-05T06:45:12.802Z,9.85
2023-02-05T06:46:18.449Z,11.02
2023-02-05T06:47:22.445Z,10.23
2023-02-05T06:48:37.094Z,11.25
2023-02-05T06:49:38.843Z,9.65
2023-02-05T06:50:43.081Z,9.43
2023-02-05T06:51:47.678Z,10.35
2023-02-05T06:52:51.316Z,9.75
2023-02-05T06:53:57.429Z,8.50
2023-02-05T06:54:59.977Z,10.73
2023-02-05T06:56:08.313Z,11.52
2023-02-05T06:57:10.798Z,13.15
2023-02-05T06:58:12.530Z,11.48
2023-02-05T06:59:18.662Z,10.55
2023-02-05T07:00:23.543Z,9.88
2023-02-05T07:01:30.721Z,9.93
2023-02-05T07:02:34.998Z,10.93
2023-02-05T07:03:41.863Z,12.55
2023-02-05T07:04:43.802Z,11.70
2023-02-05T07:05:47.877Z,12.63
2023-02-05T07:06:49.583Z,10.63
2023-02-05T07:07:57.085Z,9.20
2023-02-05T07:09:01.761Z,9.95
2023-02-05T07:10:05.363Z,11.95
2023-02-05T07:11:08.422Z,11.25
2023-02-05T07:12:21.117Z,11.68
2023-02-05T07:13:23.728Z,11.98
2023-02-05T07:14:30.061Z,11.82
2023-02-05T07:15:40.419Z,11.73
2023-02-05T07:16:42.293Z,9.82
2023-02-05T07:17:47.341Z,12.32
2023-02-05T07:18:49.115Z,11.32
2023-02-05T07:19:59.845Z,15.02
2023-02-05T07:22:07.290Z,13.80
2023-02-05T07:23:09.090Z,11.93
2023-02-05T07:24:13.235Z,14.10
2023-02-05T07:25:15.272Z,12.07
2023-02-05T07:26:19.136Z,11.27
2023-02-05T07:27:20.972Z,12.82
2023-02-05T07:28:23.553Z,12.13
2023-02-05T07:29:25.217Z,15.02
2023-02-05T07:30:30.761Z,11.15
2023-02-05T07:31:34.503Z,13.93
2023-02-05T07:32:37.175Z,13.68
2023-02-05T07:33:38.812Z,13.50
2023-02-05T07:34:45.374Z,12.48
2023-02-05T07:35:51.228Z,14.38
2023-02-05T07:36:59.199Z,14.57
2023-02-05T07:38:10.986Z,15.43
2023-02-05T07:39:14.074Z,12.93
2023-02-05T07:40:17.194Z,15.75
2023-02-05T07:41:18.803Z,16.17
2023-02-05T07:42:21.484Z,15.32
2023-02-05T07:43:23.499Z,14.27
2023-02-05T07:44:26.893Z,14.38
2023-02-05T07:45:30.562Z,15.70
2023-02-05T07:46:35.295Z,14.93
2023-02-05T07:47:40.979Z,14.27
2023-02-05T07:48:48.364Z,16.15
2023-02-05T07:49:52.154Z,14.30
2023-02-05T07:50:58.798Z,16.20
2023-02-05T07:52:08.276Z,14.05
2023-02-05T07:53:14.340Z,12.70
2023-02-05T07:54:20.139Z,13.70
2023-02-05T07:55:29.761Z,14.43
2023-02-05T07:56:31.594Z,14.02
2023-02-05T07:57:34.123Z,13.98
2023-02-05T07:58:38.270Z,16.40
2023-02-05T07:59:48.816Z,20.90
2023-02-05T08:00:50.506Z,13.82
2023-02-05T08:01:53.413Z,15.02
2023-02-05T08:02:54.978Z,15.60
2023-02-05T08:04:00.409Z,16.00
2023-02-05T08:05:06.361Z,14.90
2023-02-05T08:06:20.175Z,13.13
2023-02-05T08:07:22.297Z,14.82
2023-02-05T08:08:27.443Z,13.30
2023-02-05T08:09:30.455Z,14.07
2023-02-05T08:10:35.228Z,13.63
2023-02-05T08:11:39.405Z,15.55
2023-02-05T08:12:48.978Z,14.98
2023-02-05T08:13:53.474Z,14.18
2023-02-05T08:14:56.327Z,17.73
2023-02-05T08:16:01.235Z,13.85
2023-02-05T08:17:06.055Z,16.20
2023-02-05T08:18:11.516Z,16.85
2023-02-05T08:19:15.790Z,15.23
2023-02-05T08:20:32.281Z,16.48
2023-02-05T08:21:35.898Z,15.10
2023-02-05T08:22:45.743Z,15.15
2023-02-05T08:23:47.343Z,15.27
2023-02-05T08:24:57.951Z,13.73
2023-02-05T08:26:03.452Z,11.38
2023-02-05T08:27:18.067Z,15.10
2023-02-05T08:28:22.002Z,12.65
2023-02-05T08:29:26.697Z,15.25
2023-02-05T08:30:38.534Z,16.25
2023-02-05T08:31:45.478Z,12.55
2023-02-05T08:32:52.510Z,12.52
2023-02-05T08:34:03.566Z,13.38
2023-02-05T08:35:33.543Z,15.15
2023-02-05T08:36:47.847Z,13.13
2023-02-05T08:38:22.930Z,14.00
2023-02-05T08:39:35.632Z,16.45
2023-02-05T08:40:38.991Z,15.57
2023-02-05T08:42:02.975Z,12.35
2023-02-05T08:43:07.027Z,13.50
2023-02-05T08:44:09.933Z,15.02
2023-02-05T08:45:28.461Z,12.30
2023-02-05T08:46:49.647Z,12.40
2023-02-05T08:48:34.913Z,10.90
2023-02-05T08:49:38.270Z,12.60
2023-02-05T08:50:46.829Z,17.17
2023-02-05T08:52:00.261Z,14.85
2023-02-05T08:53:02.871Z,14.82
2023-02-05T08:54:19.678Z,11.63
2023-02-05T08:55:23.806Z,11.00
2023-02-05T08:56:30.949Z,14.85
2023-02-05T08:57:35.278Z,15.82
2023-02-05T08:58:46.044Z,13.90
2023-02-05T09:00:55.211Z,12.48
2023-02-05T09:01:58.052Z,12.75
2023-02-05T09:03:01.476Z,12.93
2023-02-05T09:04:06.930Z,12.93
2023-02-05T09:05:09.824Z,13.25
2023-02-05T09:06:21.433Z,10.85
2023-02-05T09:07:36.727Z,12.93
2023-02-05T09:08:40.120Z,12.68
2023-02-05T09:10:12.050Z,13.43
2023-02-05T09:11:14.702Z,12.80
2023-02-05T09:12:20.661Z,12.45
2023-02-05T09:13:23.201Z,16.83
2023-02-05T09:15:00.673Z,12.10
2023-02-05T09:16:14.984Z,12.43
2023-02-05T09:17:17.998Z,10.02
2023-02-05T09:18:25.505Z,12.00
2023-02-05T09:19:27.988Z,11.07
2023-02-05T09:20:49.339Z,12.13
2023-02-05T09:21:53.331Z,11.30
2023-02-05T09:22:56.735Z,11.25
2023-02-05T09:23:58.645Z,9.25
2023-02-05T09:25:02.441Z,11.38
2023-02-05T09:26:05.350Z,11.52
2023-02-05T09:27:06.880Z,14.07
2023-02-05T09:28:13.566Z,12.60
2023-02-05T09:29:15.068Z,10.80
2023-02-05T09:30:18.740Z,9.45
2023-02-05T09:31:21.179Z,10.75
2023-02-05T09:32:24.657Z,12.38
2023-02-05T09:33:26.111Z,13.27
2023-02-05T09:34:29.865Z,9.38
2023-02-05T09:35:33.306Z,13.05
2023-02-05T09:36:37.671Z,8.73
2023-02-05T09:37:40.475Z,11.52
2023-02-05T09:39:02.019Z,10.75
2023-02-05T09:40:21.399Z,10.27
2023-02-05T09:41:33.008Z,9.15
2023-02-05T09:42:44.544Z,10.77
2023-02-05T09:43:55.134Z,10.20
2023-02-05T09:45:08.238Z,9.82
2023-02-05T09:46:18.171Z,9.43
2023-02-05T09:47:27.540Z,10.70
2023-02-05T09:48:43.841Z,8.35
2023-02-05T09:49:54.714Z,9.05
2023-02-05T09:52:08.797Z,11.68
2023-02-05T09:53:18.116Z,6.78
2023-02-05T09:54:30.168Z,9.32
2023-02-05T09:55:35.996Z,8.55
2023-02-05T09:56:40.080Z,8.00
2023-02-05T09:57:43.122Z,10.48
2023-02-05T09:58:49.552Z,8.48
2023-02-05T09:59:51.967Z,8.10
2023-02-05T10:01:00.635Z,7.65
2023-02-05T10:02:23.151Z,8.13
2023-02-05T10:03:31.175Z,8.40
2023-02-05T10:04:33.674Z,8.32
2023-02-05T10:05:41.034Z,8.95
2023-02-05T10:07:06.228Z,9.85
2023-02-05T10:08:17.794Z,9.50
2023-02-05T10:09:35.287Z,8.80
2023-02-05T10:10:44.398Z,11.23
2023-02-05T10:11:51.541Z,11.63
2023-02-05T10:13:09.986Z,10.43
2023-02-05T10:14:39.502Z,8.95
2023-02-05T10:15:58.238Z,10.98
2023-02-05T10:17:24.713Z,12.00
2023-02-05T10:18:35.263Z,11.82
2023-02-05T10:19:52.170Z,6.90
2023-02-05T10:21:02.540Z,8.05
2023-02-05T10:22:16.217Z,6.60
2023-02-05T10:23:31.709Z,11.30
2023-02-05T10:24:48.221Z,10.75
2023-02-05T10:26:08.319Z,11.35
2023-02-05T10:27:18.912Z,7.82
2023-02-05T10:28:51.264Z,9.48
2023-02-05T10:30:04.076Z,10.73
2023-02-05T10:31:13.646Z,14.27
2023-02-05T10:32:22.838Z,11.52
2023-02-05T10:33:41.816Z,10.88
2023-02-05T10:34:54.017Z,14.50
2023-02-05T10:35:59.965Z,13.40
2023-02-05T10:38:19.103Z,11.43
2023-02-05T10:39:23.123Z,12.43
2023-02-05T10:40:29.844Z,10.52
2023-02-05T10:41:39.661Z,12.80
2023-02-05T10:42:48.527Z,10.23
2023-02-05T10:44:01.188Z,18.42
2023-02-05T10:45:18.129Z,10.98
2023-02-05T10:46:20.786Z,9.95
2023-02-05T10:47:41.366Z,7.82
2023-02-05T10:48:58.374Z,7.93
2023-02-05T10:50:09.957Z,9.40
2023-02-05T10:51:16.171Z,10.90
2023-02-05T10:52:18.097Z,10.48
2023-02-05T10:53:26.175Z,12.10
2023-02-05T10:54:30.998Z,12.18
2023-02-05T10:55:38.742Z,9.38
2023-02-05T10:56:51.130Z,8.07
2023-02-05T10:57:56.623Z,9.75
2023-02-05T10:59:04.593Z,9.35
2023-02-05T11:00:16.476Z,11.88
2023-02-05T11:01:32.647Z,7.63
2023-02-05T11:02:54.197Z,8.55
2023-02-05T11:04:07.726Z,12.82
2023-02-05T11:05:53.563Z,8.95
2023-02-05T11:07:01.908Z,10.65
2023-02-05T11:08:11.377Z,10.90
2023-02-05T11:09:35.772Z,10.98
2023-02-05T11:10:51.778Z,11.40
2023-02-05T11:11:59.279Z,9.20
2023-02-05T11:13:18.237Z,10.73
2023-02-05T11:14:25.361Z,11.93
2023-02-05T11:16:55.891Z,13.45
2023-02-05T11:18:29.234Z,11.98
2023-02-05T11:19:40.261Z,10.68
2023-02-05T11:21:00.184Z,11.02
2023-02-05T11:22:17.117Z,10.43
2023-02-05T11:23:38.510Z,13.65
2023-02-05T11:24:41.364Z,13.85
2023-02-05T11:27:16.548Z,9.25
2023-02-05T11:28:27.332Z,9.18
2023-02-05T11:30:52.648Z,12.88
2023-02-05T11:31:55.845Z,9.32
2023-02-05T11:32:58.980Z,12.70
2023-02-05T11:34:12.570Z,10.90
2023-02-05T11:35:21.106Z,9.85
2023-02-05T11:36:25.980Z,11.43
2023-02-05T11:37:27.629Z,12.80
2023-02-05T11:38:44.790Z,9.80
2023-02-05T11:39:56.555Z,11.77
2023-02-05T11:41:01.650Z,14.15
2023-02-05T11:42:11.366Z,10.30
2023-02-05T11:43:21.728Z,10.88
2023-02-05T11:44:29.867Z,10.85
2023-02-05T11:45:35.303Z,11.43
2023-02-05T11:46:45.198Z,9.55
2023-02-05T11:47:47.900Z,13.25
2023-02-05T11:48:59.359Z,10.35
2023-02-05T11:50:01.853Z,9.95
2023-02-05T11:51:08.308Z,11.48
2023-02-05T11:52:15.186Z,9.45
2023-02-05T11:53:21.883Z,11.07
2023-02-05T11:54:29.754Z,10.82
2023-02-05T11:55:36.127Z,12.02
2023-02-05T11:56:40.593Z,9.68
2023-02-05T11:57:43.892Z,10.73
2023-02-05T11:58:59.315Z,11.10
2023-02-05T12:00:19.118Z,12.02
2023-02-05T12:01:25.682Z,12.35
2023-02-05T12:02:31.313Z,20.15
2023-02-05T12:03:35.202Z,12.02
2023-02-05T12:04:46.543Z,10.15
2023-02-05T12:05:53.878Z,8.35
2023-02-05T12:07:01.223Z,11.32
2023-02-05T12:08:09.275Z,12.95
2023-02-05T12:09:15.666Z,14.50
2023-02-05T12:10:19.068Z,11.20
2023-02-05T12:11:56.154Z,10.45
2023-02-05T12:13:08.952Z,11.30
2023-02-05T12:14:20.737Z,11.00
2023-02-05T12:15:26.600Z,13.30
2023-02-05T12:16:46.415Z,10.73
2023-02-05T12:17:55.619Z,11.93
2023-02-05T12:19:07.749Z,10.68
2023-02-05T12:20:22.648Z,8.90
2023-02-05T12:21:38.557Z,8.73
2023-02-05T12:23:05.633Z,12.27
2023-02-05T12:24:39.617Z,12.10
2023-02-05T12:25:53.700Z,10.60
2023-02-05T12:27:07.234Z,12.30
2023-02-05T12:28:24.299Z,10.75
2023-02-05T12:29:46.816Z,10.50
2023-02-05T12:31:00.147Z,11.27
2023-02-05T12:32:11.147Z,10.48
2023-02-05T12:33:29.999Z,9.85
2023-02-05T12:34:43.189Z,10.10
2023-02-05T12:36:01.104Z,11.10
2023-02-05T12:37:29.007Z,9.18
2023-02-05T12:38:48.556Z,8.80
2023-02-05T12:39:54.287Z,10.73
2023-02-05T12:41:11.784Z,11.35
2023-02-05T12:42:25.390Z,10.45
2023-02-05T12:43:38.199Z,10.18
2023-02-05T12:44:54.273Z,13.07
2023-02-05T12:46:04.484Z,11.35
2023-02-05T12:47:20.628Z,10.25
2023-02-05T12:48:52.899Z,11.07
2023-02-05T12:50:19.411Z,11.38
2023-02-05T12:51:51.414Z,12.88
2023-02-05T12:53:08.174Z,12.02
2023-02-05T12:54:28.707Z,11.80
2023-02-05T12:55:45.095Z,10.85
2023-02-05T12:56:56.910Z,12.65
2023-02-05T12:58:04.792Z,11.70
2023-02-05T12:59:14.465Z,11.75
2023-02-05T13:00:29.380Z,12.75
2023-02-05T13:01:41.200Z,13.02
2023-02-05T13:02:54.157Z,11.77
2023-02-05T13:04:01.720Z,11.68
2023-02-05T13:05:16.028Z,11.02
2023-02-05T13:06:22.620Z,14.63
2023-02-05T13:07:34.072Z,12.55
2023-02-05T13:08:42.703Z,10.73
2023-02-05T13:09:50.286Z,14.18
2023-02-05T13:10:57.537Z,14.25
2023-02-05T13:12:05.009Z,17.10
2023-02-05T13:13:15.040Z,12.30
2023-02-05T13:14:22.533Z,12.23
2023-02-05T13:15:28.179Z,12.25
2023-02-05T13:16:37.790Z,16.15
2023-02-05T13:17:44.856Z,17.38
2023-02-05T13:19:02.994Z,13.48
2023-02-05T13:20:20.824Z,11.45
2023-02-05T13:21:41.226Z,11.18
2023-02-05T13:23:11.485Z,12.85
2023-02-05T13:24:44.794Z,12.05
2023-02-05T13:26:08.100Z,12.43
2023-02-05T13:27:40.386Z,10.32
2023-02-05T13:28:45.376Z,11.77
2023-02-05T13:29:52.852Z,13.05
2023-02-05T13:30:58.150Z,12.85
2023-02-05T13:32:15.346Z,11.43
2023-02-05T13:33:17.863Z,15.10
2023-02-05T13:34:26.093Z,11.98
2023-02-05T13:35:36.916Z,12.48
2023-02-05T13:37:13.284Z,10.98
2023-02-05T13:38:29.406Z,10.00
2023-02-05T13:39:47.512Z,11.85
2023-02-05T13:41:26.097Z,9.20
2023-02-05T13:42:45.124Z,9.77
2023-02-05T13:44:24.071Z,10.13
2023-02-05T13:45:58.524Z,11.00
2023-02-05T13:47:34.116Z,11.02
2023-02-05T13:49:03.357Z,11.85
2023-02-05T13:50:29.148Z,11.95
2023-02-05T13:51:44.513Z,13.05
2023-02-05T13:53:06.935Z,11.82
2023-02-05T13:54:30.267Z,11.70
2023-02-05T13:56:15.308Z,9.82
2023-02-05T13:57:48.588Z,11.40
2023-02-05T13:58:55.086Z,12.10
2023-02-05T13:59:57.780Z,10.23
2023-02-05T14:01:03.399Z,9.70
2023-02-05T14:02:29.840Z,13.07
2023-02-05T14:03:37.277Z,11.23
2023-02-05T14:04:53.992Z,12.90
2023-02-05T14:05:59.858Z,9.55
2023-02-05T14:07:06.203Z,10.57
2023-02-05T14:08:21.958Z,12.75
2023-02-05T14:09:28.824Z,10.30
2023-02-05T14:10:33.562Z,9.40
2023-02-05T14:11:48.744Z,10.25
2023-02-05T14:12:50.479Z,8.18
2023-02-05T14:14:22.870Z,12.52
2023-02-05T14:15:37.996Z,10.95
2023-02-05T14:16:39.821Z,11.70
2023-02-05T14:17:56.565Z,11.75
2023-02-05T14:19:14.476Z,11.80
2023-02-05T14:20:38.976Z,11.10
2023-02-05T14:22:11.160Z,10.52
2023-02-05T14:23:15.275Z,12.70
2023-02-05T14:24:38.576Z,11.60
2023-02-05T14:26:11.181Z,10.85
2023-02-05T14:27:47.395Z,11.65
2023-02-05T14:28:52.688Z,9.43
2023-02-05T14:29:54.626Z,9.68
2023-02-05T14:30:59.084Z,8.48
2023-02-05T14:32:00.857Z,15.60
2023-02-05T14:33:05.366Z,10.30
2023-02-05T14:34:47.114Z,11.63
2023-02-05T14:35:50.140Z,10.60
2023-02-05T14:36:53.229Z,11.52
2023-02-05T14:38:01.243Z,9.48
2023-02-05T14:39:06.620Z,11.60
2023-02-05T14:40:28.868Z,10.75
2023-02-05T14:41:35.786Z,7.38
2023-02-05T14:42:38.524Z,9.80
2023-02-05T14:43:43.421Z,10.25
2023-02-05T14:44:46.254Z,9.65
2023-02-05T14:45:50.262Z,8.63
2023-02-05T14:46:59.684Z,11.90
2023-02-05T14:48:02.708Z,8.57
2023-02-05T14:49:07.266Z,9.38
2023-02-05T14:50:12.515Z,11.98
2023-02-05T14:51:24.093Z,7.28
2023-02-05T14:52:34.885Z,9.27